AirNav   TITAN Aviation Fuels
 
 1114 users online  

85GA Aiken Field Airport
Talmo, Georgia, USA

GOING TO TALMO?


FAA INFORMATION EFFECTIVE 15 JULY 2021

Location

FAA Identifier: 85GA
Lat/Long: 34-10-20.3820N 083-43-51.6180W
34-10.339700N 083-43.860300W
34.1723283,-83.7310050
(estimated)
Elevation: 1020 ft. / 310.9 m (surveyed)
Variation: 03W (1990)
From city: 1 mile SW of TALMO, GA
Time zone: UTC -4 (UTC -5 during Standard Time)
Zip code: 30567

Airport Operations

Airport use: Private use. Permission required prior to landing
Activation date: 04/1993
Control tower: no
ARTCC: ATLANTA CENTER
FSS: MACON FLIGHT SERVICE STATION
Attendance: UNATNDD
Wind indicator: yes
Segmented circle: no

Airport Communications

WX ASOS at GVL (8 nm NW): 126.475 (770-532-4687)
WX AWOS-3PT at JCA (8 nm E): 118.125 (706-387-6477)
WX AWOS-3 at WDR (12 nm S): 118.575 (770-868-0642)
WX AWOS-3PT at LZU (16 nm SW): PHONE 770-339-7753

Nearby radio navigation aids

VOR radial/distance  VOR name  Freq  Var
AHNr304/24.3ATHENS VOR/DME109.6000E
PDKr063/33.4PEACHTREE VOR/DME116.6005W
ODFr214/38.0FOOTHILLS VOR/DME113.4000E

 
NDB name  Hdg/Dist  Freq  Var  ID
FLOWERY BRANCH105/8.936503WFKV ..-. -.- ...-
GWNET041/11.241905WTX - -..-
BARROW COUNTY339/15.940405WBMW -... -- .--
ALCOVY007/32.737003WVOF ...- --- ..-.
CHERO102/37.841505WDJD -.. .--- -..

Airport Services

Runway Information

Runway 4/22

Dimensions: 1000 x 125 ft. / 305 x 38 m
Surface: turf
RUNWAY 4  RUNWAY 22
Traffic pattern: leftleft

Airport Ownership and Management from official FAA records

Ownership: Privately-owned
Owner: BENNET AIKEN
1891 MOUNTAIN CREEK CHURCH RD
PENDERGRASS, GA 30567
Phone 404-693-2428

Airport Operational Statistics

Aircraft based on the field: 1
Single engine airplanes: 1
    

Additional Remarks

FOR CD CTC ATLANTA APCH AT 678-364-6131, WHEN APCH CLSD CTC ATLANTA ARTCC AT 770-210-7692.

Instrument Procedures

There are no published instrument procedures at 85GA.

Some nearby airports with instrument procedures:

KGVL - Lee Gilmer Memorial Airport (8 nm NW)
KJCA - Jackson County Airport (8 nm E)
KWDR - Barrow County Airport (12 nm S)
KLZU - Gwinnett County Airport-Briscoe Field (16 nm SW)
KAJR - Habersham County Airport (21 nm NE)
 
Loc | Ops | Rwys | IFR | FBO | Links
Com | Nav | Svcs | Stats | Notes
Area around 85GA (Aiken Field Airport)
 
Road maps at: MapQuest Bing Google
 
Aerial photo
No photo
 
Sectional chart

 
Airport distance calculator
Flying to Aiken Field Airport? Find the distance to fly.

From to 85GA

Sunrise and sunset
Times for 23-Jul-2021
 Local
(UTC-4)
 Zulu
(UTC)
Morning civil twilight06:1210:12
Sunrise06:4110:41
Sunset20:4200:42
Evening civil twilight21:1001:10

Current date and time
Zulu (UTC)  24-Jul-2021 00:01:19
Local (UTC-4)  23-Jul-2021 20:01:19
 
METAR
KGVL 
8nm NW 
232353Z AUTO 10004KT 10SM CLR 29/22 A3012 RMK AO2 LTG DSNT SW SLP182 T02890217 10322 20289 53001
KJCA 
8nm E 
232355Z AUTO 00000KT 10SM CLR 29/24 A3009 RMK AO2 T02920238 10315 20280 403150218
KWDR 
12nm S 
232355Z AUTO 00000KT 10SM CLR 28/22 A3011 RMK AO2
KLZU 
16nm SW 
232356Z 27005KT 10SM VCTS SCT042 BKN050 BKN060 27/22 A3010 RMK AO2 TSB2259E14B22E37B50 SLPNO 6//// T02670222 53006
TAF
KAHN 
24nm SE 
232000Z 2320/2418 09005KT P6SM SCT050 FM240100 00000KT P6SM SCT120 FM240800 00000KT 4SM BR SCT012 FM241400 12003KT 6SM HZ SCT025 FM241600 16004KT P6SM VCSH SCT035
NOTAMs
Click for the latest NOTAMs
NOTAMs are issued by the DoD/FAA and will open in a separate window not controlled by AirNav.

 

 
 

Would you like to see your business listed on this page?

 If your business provides an interesting product or service to pilots, flight crews, aircraft, or users of the Aiken Field Airport, you should consider listing it here.  To start the listing process, click on the button below
 
Add a business
 

Other Pages about Aiken Field Airport

Update a link
 
Copyright © AirNav, LLC. All rights reserved. Privacy Policy  Contact